Time;durP1;ratioP1;P1;durP2;ratioP2;P2;SDS_P1;SDS_P2;PMS_P1;PMS_P2;Temp;Humidity;BMP_temperature;BMP_pressure;BME280_temperature;BME280_humidity;BME280_pressure;Samples;Min_cycle;Max_cycle;Signal;HPM_P1;HPM_P2
2023/02/15 00:00:03;;;;;;;68.82;26.92;;;;;;;-2.77;100.00;100703.22;5040188;28;20026;-59
2023/02/15 00:02:31;;;;;;;85.30;26.98;;;;;;;-2.62;100.00;100709.94;5035659;28;20032;-59
2023/02/15 00:04:57;;;;;;;183.68;29.45;;;;;;;-2.68;100.00;100705.13;5052426;28;20086;-59
2023/02/15 00:07:22;;;;;;;106.15;27.73;;;;;;;-2.66;100.00;100704.06;5047215;28;20033;-59
2023/02/15 00:09:48;;;;;;;77.22;26.67;;;;;;;-2.57;100.00;100707.78;5040749;28;20131;-59
2023/02/15 00:12:13;;;;;;;99.30;28.15;;;;;;;-2.53;100.00;100698.66;5038147;28;20033;-59
2023/02/15 00:14:38;;;;;;;81.82;26.42;;;;;;;-2.46;100.00;100710.34;5042318;28;20033;-59
2023/02/15 00:17:04;;;;;;;73.97;28.02;;;;;;;-2.39;100.00;100708.09;5050261;28;20025;-59
2023/02/15 00:19:29;;;;;;;105.53;27.95;;;;;;;-2.42;100.00;100703.91;5049196;28;20048;-59
2023/02/15 00:21:55;;;;;;;102.97;26.23;;;;;;;-2.48;100.00;100704.38;5041710;28;20033;-59
2023/02/15 00:24:20;;;;;;;116.80;24.33;;;;;;;-2.39;100.00;100708.91;5042822;28;20029;-59
2023/02/15 00:26:46;;;;;;;72.80;25.33;;;;;;;-2.31;100.00;100708.31;5054384;28;20032;-59
2023/02/15 00:29:12;;;;;;;143.63;24.10;;;;;;;-2.45;100.00;100696.25;5036625;28;20029;-59
2023/02/15 00:31:37;;;;;;;104.00;23.00;;;;;;;-2.41;100.00;100696.88;5048634;28;20075;-59
2023/02/15 00:34:04;;;;;;;229.50;26.27;;;;;;;-2.46;100.00;100688.53;5036696;28;20087;-59
2023/02/15 00:36:30;;;;;;;90.22;22.45;;;;;;;-2.46;100.00;100686.72;5037684;28;20049;-59
2023/02/15 00:38:55;;;;;;;150.98;23.80;;;;;;;-2.45;100.00;100691.00;5041455;28;20030;-59
2023/02/15 00:41:21;;;;;;;235.57;24.88;;;;;;;-2.39;100.00;100690.53;5045916;28;20118;-59
2023/02/15 00:43:46;;;;;;;218.50;25.85;;;;;;;-2.43;100.00;100689.09;5035785;28;20030;-59
2023/02/15 00:46:11;;;;;;;154.38;24.92;;;;;;;-2.37;100.00;100682.53;5046901;28;20030;-59
2023/02/15 00:48:37;;;;;;;119.72;26.23;;;;;;;-2.28;100.00;100688.84;5074725;28;20427;-59
2023/02/15 00:51:02;;;;;;;163.23;25.90;;;;;;;-2.27;100.00;100687.88;5039605;28;20040;-59
2023/02/15 00:53:28;;;;;;;143.60;24.95;;;;;;;-2.20;100.00;100691.66;5038805;28;20029;-58
2023/02/15 00:55:53;;;;;;;124.15;25.73;;;;;;;-2.17;100.00;100694.06;5043798;28;20025;-58
2023/02/15 00:58:20;;;;;;;179.52;26.08;;;;;;;-2.15;100.00;100689.50;5042660;28;20028;-58
2023/02/15 01:00:46;;;;;;;136.48;25.95;;;;;;;-2.18;100.00;100684.50;5041675;28;20394;-58
2023/02/15 01:03:12;;;;;;;109.18;23.80;;;;;;;-2.18;100.00;100692.38;5037588;28;20087;-58
2023/02/15 01:05:38;;;;;;;171.85;25.70;;;;;;;-2.24;100.00;100698.16;5045473;28;20043;-58
2023/02/15 01:08:03;;;;;;;153.52;24.90;;;;;;;-2.18;100.00;100692.38;5042953;28;20029;-58
2023/02/15 01:10:29;;;;;;;253.00;24.27;;;;;;;-2.18;100.00;100687.13;5043699;28;20661;-58
2023/02/15 01:12:54;;;;;;;216.00;24.08;;;;;;;-2.14;100.00;100683.31;5046690;28;20039;-60
2023/02/15 01:15:20;;;;;;;274.25;26.00;;;;;;;-2.16;100.00;100679.97;5041179;28;20446;-60
2023/02/15 01:17:51;;;;;;;223.90;26.60;;;;;;;-2.23;100.00;100676.16;5042416;28;20478;-60
2023/02/15 01:20:17;;;;;;;229.60;26.13;;;;;;;-2.23;100.00;100673.53;5039050;28;20583;-60
2023/02/15 01:22:42;;;;;;;181.32;24.98;;;;;;;-2.17;100.00;100684.41;5037308;28;20028;-60
2023/02/15 01:25:08;;;;;;;268.02;26.38;;;;;;;-2.15;100.00;100681.63;5035591;28;20040;-58
2023/02/15 01:27:33;;;;;;;235.10;24.73;;;;;;;-2.20;100.00;100675.91;5047656;28;20028;-58
2023/02/15 01:29:59;;;;;;;209.43;23.25;;;;;;;-2.15;100.00;100675.53;5051290;28;20055;-59
2023/02/15 01:32:24;;;;;;;236.02;25.08;;;;;;;-2.17;100.00;100673.06;5053208;28;20040;-60
2023/02/15 01:34:50;;;;;;;142.73;24.15;;;;;;;-2.17;100.00;100683.56;5062976;28;20045;-59
2023/02/15 01:37:15;;;;;;;201.75;23.95;;;;;;;-2.12;100.00;100670.88;5043645;28;20052;-59
2023/02/15 01:39:40;;;;;;;160.38;24.63;;;;;;;-2.17;100.00;100673.88;5046097;28;20045;-59
2023/02/15 01:42:10;;;;;;;217.85;25.38;;;;;;;-2.18;100.00;100666.13;5043588;28;20475;-59
2023/02/15 01:44:57;;;;;;;210.57;25.05;;;;;;;-2.11;100.00;100661.22;5037489;28;20040;-60
2023/02/15 01:47:29;;;;;;;168.40;25.15;;;;;;;-2.11;100.00;100661.22;5047099;28;20036;-59
2023/02/15 01:50:15;;;;;;;220.27;24.45;;;;;;;-2.18;100.00;100659.06;5046499;28;20029;-59
2023/02/15 01:52:50;;;;;;;213.05;23.13;;;;;;;-2.15;100.00;100660.59;5043518;28;20040;-60
2023/02/15 01:55:15;;;;;;;186.13;24.80;;;;;;;-2.13;100.00;100656.06;5034804;28;20025;-60
2023/02/15 01:57:41;;;;;;;262.80;26.10;;;;;;;-2.09;100.00;100661.91;5042433;28;20155;-59
2023/02/15 02:00:07;;;;;;;208.57;25.27;;;;;;;-2.10;100.00;100662.88;5041307;28;20376;-59
2023/02/15 02:02:32;;;;;;;155.35;25.05;;;;;;;-2.05;100.00;100661.50;5037947;28;20033;-60
2023/02/15 02:04:59;;;;;;;305.17;27.85;;;;;;;-2.05;100.00;100658.06;5051362;28;20510;-60
2023/02/15 02:07:27;;;;;;;192.55;25.65;;;;;;;-2.06;100.00;100657.22;5044752;28;20368;-60
2023/02/15 02:09:53;;;;;;;344.95;29.25;;;;;;;-2.13;100.00;100652.59;5039303;28;20073;-60
2023/02/15 02:12:18;;;;;;;258.90;26.83;;;;;;;-2.09;100.00;100646.97;5047910;28;20032;-59
2023/02/15 02:14:44;;;;;;;162.90;24.08;;;;;;;-2.03;100.00;100654.34;5043812;28;20447;-60
2023/02/15 02:17:17;;;;;;;265.05;25.73;;;;;;;-2.04;100.00;100638.72;5038604;28;20025;-60
2023/02/15 02:20:13;;;;;;;188.55;23.00;;;;;;;-1.98;100.00;100636.41;5036094;28;20021;-60
2023/02/15 02:23:06;;;;;;;184.13;24.98;;;;;;;-1.97;100.00;100632.84;5032976;28;20124;-60
2023/02/15 02:25:53;;;;;;;186.68;24.80;;;;;;;-2.01;100.00;100634.03;5037463;28;20841;-60
2023/02/15 02:28:33;;;;;;;244.55;23.42;;;;;;;-2.05;100.00;100624.72;5042063;28;20036;-60
2023/02/15 02:31:11;;;;;;;189.77;23.20;;;;;;;-1.94;100.00;100615.16;5043821;28;20124;-60
2023/02/15 02:34:14;;;;;;;230.23;23.70;;;;;;;-2.00;100.00;100617.34;5041272;28;20045;-60
2023/02/15 02:36:49;;;;;;;182.88;24.88;;;;;;;-1.94;100.00;100620.41;5035058;28;20043;-60
2023/02/15 02:39:30;;;;;;;160.32;23.83;;;;;;;-2.07;100.00;100610.91;5076578;28;20040;-60
2023/02/15 02:42:00;;;;;;;185.45;25.15;;;;;;;-1.90;100.00;100620.00;5040811;28;20029;-60
2023/02/15 02:44:43;;;;;;;179.65;23.77;;;;;;;-1.91;100.00;100609.63;5031763;28;20041;-60
2023/02/15 02:47:19;;;;;;;172.70;24.30;;;;;;;-1.92;100.00;100602.69;5046982;28;20060;-60
2023/02/15 02:49:45;;;;;;;171.88;25.20;;;;;;;-1.91;100.00;100609.63;5039521;28;20223;-60
2023/02/15 02:52:38;;;;;;;146.30;24.25;;;;;;;-1.89;100.00;100613.81;5042683;28;20456;-60
2023/02/15 02:55:11;;;;;;;159.95;23.00;;;;;;;-1.90;100.00;100611.28;5039100;28;20025;-60
2023/02/15 02:57:37;;;;;;;130.48;22.80;;;;;;;-1.71;100.00;100600.91;5043318;28;20056;-60
2023/02/15 03:00:04;;;;;;;188.32;23.92;;;;;;;-1.77;100.00;100606.69;5043385;28;20083;-60
2023/02/15 03:02:32;;;;;;;209.45;25.48;;;;;;;-1.86;100.00;100608.28;5061772;28;20534;-60
2023/02/15 03:05:03;;;;;;;382.52;25.77;;;;;;;-2.04;100.00;100604.56;5040506;28;20409;-60
2023/02/15 03:07:30;;;;;;;205.98;22.42;;;;;;;-2.17;100.00;100595.06;5040495;28;20048;-59
2023/02/15 03:09:56;;;;;;;202.73;19.73;;;;;;;-2.20;100.00;100589.22;5034668;28;20144;-59
2023/02/15 03:12:24;;;;;;;140.65;18.75;;;;;;;-2.29;100.00;100587.38;5059179;28;20033;-59
2023/02/15 03:14:57;;;;;;;145.95;17.42;;;;;;;-2.38;100.00;100581.91;5026477;28;20022;-59
2023/02/15 03:17:23;;;;;;;295.40;22.88;;;;;;;-2.22;100.00;100592.00;5041033;28;20033;-60
2023/02/15 03:19:49;;;;;;;145.95;17.48;;;;;;;-2.34;100.00;100590.38;5024063;28;20026;-60
2023/02/15 03:22:28;;;;;;;139.13;18.65;;;;;;;-2.27;100.00;100588.06;5026602;28;20152;-60
2023/02/15 03:25:02;;;;;;;90.57;18.35;;;;;;;-2.17;100.00;100581.13;5038755;28;20088;-59
2023/02/15 03:27:33;;;;;;;253.50;22.77;;;;;;;-1.86;100.00;100578.53;5022496;28;20051;-60
2023/02/15 03:29:59;;;;;;;135.38;21.23;;;;;;;-2.05;100.00;100580.06;5057794;28;20096;-60
2023/02/15 03:32:25;;;;;;;177.50;21.48;;;;;;;-2.13;100.00;100585.13;5045956;28;20037;-59
2023/02/15 03:34:51;;;;;;;189.55;22.55;;;;;;;-2.12;100.00;100575.44;5035988;28;20025;-59
2023/02/15 03:37:28;;;;;;;238.82;21.98;;;;;;;-1.98;100.00;100568.09;5026299;28;20032;-59
2023/02/15 03:43:03;;;;;;;209.85;20.45;;;;;;;-2.10;100.00;100579.63;5034106;28;20094;-59
2023/02/15 03:45:30;;;;;;;169.02;20.33;;;;;;;-2.10;100.00;100576.16;5041897;28;20079;-59
2023/02/15 03:47:56;;;;;;;449.45;26.23;;;;;;;-2.23;100.00;100573.72;5042189;28;20119;-59
2023/02/15 03:53:11;;;;;;;398.25;25.48;;;;;;;-2.17;100.00;100567.97;5041624;28;20032;-59
2023/02/15 03:55:37;;;;;;;278.67;23.90;;;;;;;-2.13;100.00;100572.00;5029571;28;20036;-59
2023/02/15 04:03:48;;;;;;;121.20;20.83;;;;;;;-1.93;100.00;100564.25;5043613;28;20035;-59
2023/02/15 04:06:13;;;;;;;145.53;22.50;;;;;;;-1.85;100.00;100562.63;5047700;28;20033;-59
2023/02/15 04:11:23;;;;;;;102.53;21.77;;;;;;;-1.87;100.00;100563.72;5042011;28;20079;-59
2023/02/15 04:13:56;;;;;;;235.27;22.80;;;;;;;-1.82;100.00;100561.53;5039194;28;20050;-59
2023/02/15 04:16:21;;;;;;;132.43;20.77;;;;;;;-1.87;100.00;100566.34;5041204;28;20029;-59
2023/02/15 04:26:59;;;;;;;140.93;23.80;;;;;;;-1.94;100.00;100568.69;5044215;28;20099;-59
2023/02/15 04:29:25;;;;;;;82.45;21.40;;;;;;;-1.91;100.00;100573.66;5045226;28;20043;-59
2023/02/15 04:31:51;;;;;;;113.22;22.63;;;;;;;-1.89;100.00;100568.28;5042633;28;20045;-59
2023/02/15 04:34:16;;;;;;;109.85;23.02;;;;;;;-1.86;100.00;100570.66;5038989;28;20032;-59
2023/02/15 04:36:42;;;;;;;206.75;24.65;;;;;;;-2.07;100.00;100568.88;5038746;28;20021;-59
2023/02/15 04:39:07;;;;;;;107.78;21.08;;;;;;;-1.81;100.00;100561.41;5041346;28;20033;-59
2023/02/15 04:41:33;;;;;;;112.68;22.00;;;;;;;-1.84;100.00;100563.47;5044153;28;20061;-59
2023/02/15 04:43:59;;;;;;;144.20;22.30;;;;;;;-1.87;100.00;100554.06;5042975;28;20037;-60
2023/02/15 04:46:24;;;;;;;142.50;23.48;;;;;;;-1.84;100.00;100566.94;5047881;28;20028;-59
2023/02/15 04:48:50;;;;;;;110.95;23.20;;;;;;;-1.73;100.00;100558.13;5036894;28;20029;-59
2023/02/15 04:51:15;;;;;;;94.97;23.23;;;;;;;-1.77;100.00;100562.00;5040144;28;20029;-59
2023/02/15 04:53:41;;;;;;;113.03;22.95;;;;;;;-1.73;100.00;100560.75;5035146;28;20029;-60
2023/02/15 04:56:06;;;;;;;139.93;23.77;;;;;;;-1.85;100.00;100567.06;5040016;28;20033;-59
2023/02/15 04:58:32;;;;;;;116.20;25.38;;;;;;;-1.78;100.00;100560.31;5043355;28;20040;-59
2023/02/15 05:00:57;;;;;;;367.00;25.88;;;;;;;-1.85;100.00;100559.19;5036754;28;20028;-59
2023/02/15 05:03:23;;;;;;;180.38;25.98;;;;;;;-1.89;100.00;100560.41;5048063;28;20406;-59
2023/02/15 05:05:49;;;;;;;131.18;24.95;;;;;;;-1.84;100.00;100563.47;5047612;28;20032;-59
2023/02/15 05:08:14;;;;;;;90.90;24.48;;;;;;;-1.71;100.00;100563.28;5044054;28;20033;-59
2023/02/15 05:10:39;;;;;;;211.20;24.92;;;;;;;-1.80;100.00;100564.88;5044261;28;20078;-59
2023/02/15 05:13:05;;;;;;;179.35;24.75;;;;;;;-1.42;100.00;100563.38;5044783;28;20091;-60
2023/02/15 05:15:30;;;;;;;238.90;22.77;;;;;;;-1.65;100.00;100557.47;5050339;28;20051;-59
2023/02/15 05:17:56;;;;;;;216.90;22.27;;;;;;;-1.80;100.00;100559.63;5036256;28;20037;-59
2023/02/15 05:20:21;;;;;;;294.67;25.52;;;;;;;-1.97;100.00;100563.69;5037447;28;20063;-59
2023/02/15 05:22:47;;;;;;;272.02;23.80;;;;;;;-2.10;100.00;100563.03;5040691;28;20063;-59
2023/02/15 05:30:40;;;;;;;216.80;23.13;;;;;;;-1.89;100.00;100560.41;5037873;28;20044;-59
2023/02/15 05:33:06;;;;;;;282.60;23.63;;;;;;;-1.93;100.00;100551.13;5072876;28;20037;-59
2023/02/15 05:35:32;;;;;;;470.15;28.08;;;;;;;-1.90;100.00;100558.72;5047423;28;20025;-59
2023/02/15 05:37:58;;;;;;;215.85;21.30;;;;;;;-1.91;100.00;100547.38;5037018;28;20458;-59
2023/02/15 05:40:23;;;;;;;265.48;24.27;;;;;;;-1.99;100.00;100553.28;5040003;28;20028;-59
2023/02/15 05:42:48;;;;;;;246.23;27.67;;;;;;;-2.02;100.00;100552.69;5034246;28;20018;-59
2023/02/15 05:45:15;;;;;;;221.70;23.73;;;;;;;-1.96;100.00;100550.41;5037759;28;20202;-59
2023/02/15 05:47:40;;;;;;;297.85;23.95;;;;;;;-2.03;100.00;100549.25;5038694;28;20024;-60
2023/02/15 05:50:06;;;;;;;319.55;25.15;;;;;;;-2.03;100.00;100551.88;5041228;28;20029;-59
2023/02/15 05:52:32;;;;;;;211.32;22.05;;;;;;;-1.71;100.00;100545.69;5043707;28;20041;-59
2023/02/15 05:54:59;;;;;;;208.10;23.48;;;;;;;-1.91;100.00;100547.38;5036115;28;20479;-60
2023/02/15 05:57:25;;;;;;;176.30;22.95;;;;;;;-1.91;100.00;100547.38;5038850;28;20033;-60
2023/02/15 05:59:51;;;;;;;222.25;24.35;;;;;;;-2.10;100.00;100545.47;5043849;28;20025;-60
2023/02/15 06:02:16;;;;;;;162.43;21.67;;;;;;;-2.08;100.00;100545.34;5047262;28;20029;-60
2023/02/15 06:04:41;;;;;;;176.73;20.85;;;;;;;-2.25;100.00;100558.09;5044496;28;20044;-59
2023/02/15 06:07:07;;;;;;;63.05;14.55;;;;;;;-2.36;100.00;100555.53;5039051;28;20028;-59
2023/02/15 06:09:32;;;;;;;111.78;17.40;;;;;;;-2.26;100.00;100568.72;5041105;28;20458;-59
2023/02/15 06:11:58;;;;;;;141.40;21.35;;;;;;;-2.25;100.00;100570.38;5039377;28;20029;-59
2023/02/15 06:14:23;;;;;;;157.50;21.60;;;;;;;-2.36;100.00;100565.19;5045664;28;20036;-59
2023/02/15 06:16:48;;;;;;;121.05;19.23;;;;;;;-2.37;100.00;100561.75;5041189;28;20029;-59
2023/02/15 06:19:14;;;;;;;138.32;19.77;;;;;;;-2.49;100.00;100565.38;5040648;28;20186;-59
2023/02/15 06:21:39;;;;;;;214.30;21.02;;;;;;;-2.62;100.00;100565.56;5040000;28;20052;-59
2023/02/15 06:24:05;;;;;;;151.65;21.95;;;;;;;-2.67;100.00;100560.66;5043210;28;20044;-59
2023/02/15 06:26:30;;;;;;;163.50;21.13;;;;;;;-2.67;100.00;100570.31;5067143;28;20021;-59
2023/02/15 06:28:56;;;;;;;94.07;19.08;;;;;;;-2.64;100.00;100570.09;5041134;28;20056;-59
2023/02/15 06:31:21;;;;;;;101.35;19.13;;;;;;;-2.76;100.00;100565.81;5036843;28;20041;-59
2023/02/15 06:33:46;;;;;;;97.60;17.63;;;;;;;-2.56;100.00;100562.41;5036625;28;20037;-59
2023/02/15 06:36:12;;;;;;;92.70;20.13;;;;;;;-2.63;100.00;100564.69;5033137;28;20017;-59
2023/02/15 06:38:38;;;;;;;112.53;20.55;;;;;;;-2.63;100.00;100574.38;5038752;28;20041;-59
2023/02/15 06:41:03;;;;;;;119.82;19.30;;;;;;;-2.85;100.00;100578.72;5038415;28;20036;-59
2023/02/15 06:43:28;;;;;;;105.78;20.98;;;;;;;-2.77;100.00;100566.75;5038558;28;20115;-59
2023/02/15 06:45:54;;;;;;;133.18;20.55;;;;;;;-2.82;100.00;100577.66;5031265;28;20033;-59
2023/02/15 06:48:19;;;;;;;93.18;18.45;;;;;;;-3.06;100.00;100575.19;5045162;28;20032;-63
2023/02/15 06:50:45;;;;;;;127.32;19.30;;;;;;;-3.02;100.00;100576.63;5033934;28;20029;-59
2023/02/15 06:53:10;;;;;;;84.85;18.88;;;;;;;-3.20;100.00;100578.06;5043439;28;20025;-59
2023/02/15 06:55:36;;;;;;;138.93;19.40;;;;;;;-3.12;100.00;100576.50;5049465;28;20458;-59
2023/02/15 06:58:01;;;;;;;122.82;19.92;;;;;;;-2.95;100.00;100576.94;5066498;28;20052;-59
2023/02/15 07:00:26;;;;;;;128.30;20.23;;;;;;;-2.97;100.00;100579.72;5048123;28;20025;-59
2023/02/15 07:02:57;;;;;;;109.50;18.40;;;;;;;-3.09;100.00;100583.31;5035791;28;20033;-59
2023/02/15 07:05:23;;;;;;;139.25;19.85;;;;;;;-3.14;100.00;100572.34;5040178;28;20075;-59
2023/02/15 07:07:48;;;;;;;151.32;19.13;;;;;;;-3.09;100.00;100585.94;5036180;28;20034;-59
2023/02/15 07:10:14;;;;;;;124.00;18.52;;;;;;;-3.13;100.00;100582.69;5037812;28;20029;-59
2023/02/15 07:12:43;;;;;;;115.75;17.40;;;;;;;-3.27;100.00;100577.69;5049628;28;20028;-60
2023/02/15 07:15:10;;;;;;;101.13;18.20;;;;;;;-3.23;100.00;100578.31;5050001;28;20025;-59
2023/02/15 07:17:36;;;;;;;94.72;16.83;;;;;;;-3.07;100.00;100569.13;5037929;28;20063;-60
2023/02/15 07:20:07;;;;;;;82.00;16.77;;;;;;;-3.14;100.00;100572.34;5044846;28;20037;-59
2023/02/15 07:22:33;;;;;;;82.85;19.55;;;;;;;-3.10;100.00;100576.38;5042631;28;20041;-60
2023/02/15 07:24:59;;;;;;;78.30;18.52;;;;;;;-3.06;100.00;100585.69;5037921;28;20033;-60
2023/02/15 07:27:24;;;;;;;68.80;17.98;;;;;;;-3.12;100.00;100580.91;5042101;28;20055;-59
2023/02/15 07:29:50;;;;;;;74.65;19.13;;;;;;;-3.18;100.00;100578.78;5045604;28;20288;-59
2023/02/15 07:32:15;;;;;;;71.75;18.05;;;;;;;-3.13;100.00;100576.63;5043546;28;20395;-59
2023/02/15 07:34:41;;;;;;;87.03;17.40;;;;;;;-3.21;100.00;100576.41;5045218;28;20029;-59
2023/02/15 07:37:06;;;;;;;77.30;16.38;;;;;;;-3.21;100.00;100576.41;5048668;28;20032;-59
2023/02/15 07:39:32;;;;;;;78.90;18.60;;;;;;;-3.25;100.00;100576.63;5045407;28;20450;-59
2023/02/15 07:41:57;;;;;;;59.33;16.77;;;;;;;-2.93;100.00;100572.41;5042704;28;20026;-59
2023/02/15 07:44:22;;;;;;;81.05;21.05;;;;;;;-2.95;100.00;100572.53;5044747;28;20187;-59
2023/02/15 07:46:48;;;;;;;81.93;21.92;;;;;;;-2.79;100.00;100566.91;5038421;28;20025;-59
2023/02/15 07:49:15;;;;;;;129.07;22.13;;;;;;;-3.13;100.00;100563.50;5043533;28;20112;-59
2023/02/15 07:51:41;;;;;;;89.70;18.00;;;;;;;-2.84;100.00;100562.03;5039567;28;20099;-59
2023/02/15 07:54:06;;;;;;;115.13;16.88;;;;;;;-2.64;100.00;100559.59;5045083;28;20025;-59
2023/02/15 07:56:32;;;;;;;24.13;10.48;;;;;;;-2.65;100.00;100557.91;5036432;28;20112;-59
2023/02/15 07:59:00;;;;;;;97.30;16.17;;;;;;;-2.89;100.00;100551.06;5036495;28;20028;-59
2023/02/15 08:01:27;;;;;;;92.97;15.27;;;;;;;-2.93;100.00;100549.63;5032699;28;20498;-59
2023/02/15 08:03:53;;;;;;;65.95;16.40;;;;;;;-3.08;100.00;100543.81;5040959;28;20033;-59
2023/02/15 08:06:20;;;;;;;108.45;17.27;;;;;;;-2.91;100.00;100546.91;5038075;28;20044;-59
2023/02/15 08:08:45;;;;;;;81.05;16.70;;;;;;;-2.83;100.00;100545.31;5042437;28;20025;-59
2023/02/15 08:11:33;;;;;;;96.50;19.50;;;;;;;-2.85;100.00;100541.97;5043366;28;20119;-59
2023/02/15 08:14:05;;;;;;;89.78;20.02;;;;;;;-2.64;100.00;100525.47;5040048;28;20051;-59
2023/02/15 08:16:37;;;;;;;104.30;16.55;;;;;;;-2.39;100.00;100532.97;5043487;28;20060;-59
2023/02/15 08:19:12;;;;;;;74.35;16.73;;;;;;;-2.27;100.00;100535.53;5044272;28;20369;-59
2023/02/15 08:21:39;;;;;;;81.10;18.73;;;;;;;-2.18;100.00;100529.53;5036955;28;20506;-59
2023/02/15 08:24:05;;;;;;;89.50;18.85;;;;;;;-1.97;100.00;100530.34;5041413;28;20470;-59
2023/02/15 08:26:31;;;;;;;69.75;18.85;;;;;;;-1.70;100.00;100523.69;5038021;28;20044;-59
2023/02/15 08:28:57;;;;;;;83.25;19.92;;;;;;;-1.47;100.00;100528.78;5036806;28;20486;-60
2023/02/15 08:31:23;;;;;;;77.13;20.40;;;;;;;-1.43;100.00;100520.47;5036900;28;20060;-60
2023/02/15 08:33:49;;;;;;;68.28;18.77;;;;;;;-1.22;100.00;100517.78;5043443;28;20029;-60
2023/02/15 08:36:16;;;;;;;82.75;19.30;;;;;;;-1.16;100.00;100522.50;5025371;28;20068;-60
2023/02/15 08:38:41;;;;;;;61.63;19.15;;;;;;;-1.29;100.00;100519.28;5038865;28;20106;-59
2023/02/15 08:41:20;;;;;;;66.22;23.85;;;;;;;-1.11;100.00;100507.16;5046325;28;20197;-59
2023/02/15 08:43:47;;;;;;;68.35;26.52;;;;;;;-1.19;100.00;100517.53;5042623;28;20029;-60
2023/02/15 08:46:12;;;;;;;71.60;28.13;;;;;;;-1.08;100.00;100506.88;5040355;28;20091;-60
2023/02/15 08:48:38;;;;;;;82.85;29.75;;;;;;;-0.89;100.00;100506.06;5041822;28;20036;-60
2023/02/15 08:51:24;;;;;;;62.72;19.92;;;;;;;-0.74;100.00;100505.69;5047960;28;20115;-60
2023/02/15 08:53:51;;;;;;;59.67;19.70;;;;;;;-0.79;100.00;100502.63;5044320;28;20239;-59
2023/02/15 08:56:18;;;;;;;94.00;33.40;;;;;;;-0.89;100.00;100500.81;5045381;28;20064;-59
2023/02/15 08:58:43;;;;;;;55.53;19.45;;;;;;;-0.85;100.00;100511.88;5056935;28;20060;-59
2023/02/15 09:01:14;;;;;;;70.80;24.98;;;;;;;-0.98;100.00;100513.94;5046156;28;20026;-59
2023/02/15 09:03:39;;;;;;;80.97;30.42;;;;;;;-0.90;100.00;100508.81;5047707;28;20065;-59
2023/02/15 09:06:05;;;;;;;115.55;43.03;;;;;;;-0.76;100.00;100500.53;5049236;28;20056;-59
2023/02/15 09:08:30;;;;;;;57.22;21.67;;;;;;;-0.80;100.00;100501.81;5042312;28;20111;-59
2023/02/15 09:11:22;;;;;;;59.08;20.08;;;;;;;-0.77;100.00;100504.16;5043169;28;20054;-59
2023/02/15 09:13:47;;;;;;;61.55;24.17;;;;;;;-0.51;100.00;100501.78;5045113;28;20395;-59
2023/02/15 09:16:13;;;;;;;72.32;25.23;;;;;;;-0.51;100.00;100500.94;5042078;28;20148;-59
2023/02/15 09:18:39;;;;;;;60.58;20.83;;;;;;;-0.48;100.00;100495.41;5044456;28;20379;-59
2023/02/15 09:21:17;;;;;;;61.72;18.38;;;;;;;-0.63;100.00;100496.78;5045582;28;20461;-59
2023/02/15 09:23:44;;;;;;;58.95;20.15;;;;;;;-0.49;100.00;100485.84;5039491;28;20484;-59
2023/02/15 09:26:11;;;;;;;57.75;19.52;;;;;;;-0.41;100.00;100485.97;5047289;28;20039;-59
2023/02/15 09:28:37;;;;;;;53.05;19.67;;;;;;;-0.24;100.00;100497.59;5043936;28;20060;-59
2023/02/15 09:31:07;;;;;;;59.45;20.10;;;;;;;-0.35;100.00;100495.09;5037291;28;20091;-59
2023/02/15 09:33:34;;;;;;;58.80;19.95;;;;;;;-0.15;100.00;100501.16;5042551;28;20063;-59
2023/02/15 09:35:59;;;;;;;63.88;19.80;;;;;;;-0.05;100.00;100497.56;5044738;28;20032;-59
2023/02/15 09:38:25;;;;;;;79.68;21.58;;;;;;;-0.10;100.00;100499.78;5071954;28;20021;-59
2023/02/15 09:40:58;;;;;;;68.90;20.92;;;;;;;0.04;100.00;100502.94;5040287;28;20116;-60
2023/02/15 09:43:35;;;;;;;61.25;20.33;;;;;;;0.16;100.00;100497.34;5038761;28;20036;-59
2023/02/15 09:46:15;;;;;;;62.55;20.17;;;;;;;0.32;100.00;100503.81;5041456;28;20029;-59
2023/02/15 09:48:45;;;;;;;74.70;22.00;;;;;;;0.47;100.00;100522.63;5059244;28;20092;-59
2023/02/15 09:51:16;;;;;;;71.60;22.08;;;;;;;0.57;100.00;100521.59;5025397;28;20034;-59
2023/02/15 09:54:17;;;;;;;55.25;17.92;;;;;;;0.85;100.00;100517.19;5042223;28;20033;-59
2023/02/15 09:56:47;;;;;;;65.80;21.35;;;;;;;0.89;100.00;100516.88;5032720;28;20049;-60
2023/02/15 09:59:27;;;;;;;56.67;20.42;;;;;;;0.99;100.00;100518.47;5022321;28;20116;-58
2023/02/15 10:02:10;;;;;;;69.75;23.65;;;;;;;1.14;100.00;100513.50;5046559;28;20469;-59
2023/02/15 10:05:00;;;;;;;63.70;21.70;;;;;;;1.20;100.00;100514.72;5038491;28;20510;-59
2023/02/15 10:07:34;;;;;;;66.77;22.03;;;;;;;1.21;100.00;100511.09;5041964;28;20025;-59
2023/02/15 10:10:15;;;;;;;61.75;20.17;;;;;;;1.26;100.00;100514.94;5040295;28;20044;-59
2023/02/15 10:12:56;;;;;;;65.80;23.15;;;;;;;1.71;100.00;100518.47;5045492;28;20486;-61
2023/02/15 10:15:51;;;;;;;57.75;20.27;;;;;;;1.85;100.00;100510.00;5041999;28;20033;-59
2023/02/15 10:18:35;;;;;;;55.95;20.08;;;;;;;1.34;100.00;100513.38;5043684;28;20087;-59
2023/02/15 10:21:08;;;;;;;57.47;21.02;;;;;;;1.70;100.00;100516.84;5044665;28;20037;-59
2023/02/15 10:23:56;;;;;;;59.85;21.42;;;;;;;2.26;100.00;100512.91;5042384;28;20040;-59
2023/02/15 10:26:34;;;;;;;53.95;20.92;;;;;;;2.49;100.00;100523.75;5042258;28;20045;-59
2023/02/15 10:29:11;;;;;;;54.25;20.33;;;;;;;2.68;100.00;100521.88;5060067;28;20566;-59
2023/02/15 10:31:52;;;;;;;53.25;21.92;;;;;;;2.96;100.00;100517.16;5041555;28;20539;-59
2023/02/15 10:34:37;;;;;;;64.72;23.35;;;;;;;2.92;98.31;100515.81;5055222;28;20059;-59
2023/02/15 10:37:24;;;;;;;61.47;23.75;;;;;;;3.23;97.67;100511.59;5037666;28;20033;-60
2023/02/15 10:40:08;;;;;;;62.70;25.27;;;;;;;4.08;94.04;100503.28;5037686;28;20024;-59
2023/02/15 10:42:36;;;;;;;60.00;23.60;;;;;;;4.37;91.33;100509.84;5042551;28;20545;-59
2023/02/15 10:45:17;;;;;;;65.55;24.27;;;;;;;4.79;89.19;100506.03;5039191;28;20035;-59
2023/02/15 10:47:53;;;;;;;53.63;21.60;;;;;;;5.02;87.40;100495.47;5041838;28;21419;-59
2023/02/15 10:50:37;;;;;;;51.72;21.90;;;;;;;5.59;84.69;100495.06;5033541;28;20040;-59
2023/02/15 10:53:14;;;;;;;52.92;21.95;;;;;;;5.62;84.10;100500.00;5043284;28;20092;-59
2023/02/15 10:55:58;;;;;;;61.55;23.48;;;;;;;5.85;83.07;100501.81;5029907;28;20029;-59
2023/02/15 10:58:35;;;;;;;70.47;25.23;;;;;;;5.59;84.29;100494.19;5034388;28;20033;-59
2023/02/15 11:01:13;;;;;;;62.70;25.27;;;;;;;5.91;82.57;100492.28;5040630;28;20034;-59
2023/02/15 11:04:14;;;;;;;59.15;25.60;;;;;;;6.09;82.19;100487.47;5041674;28;20483;-59
2023/02/15 11:06:41;;;;;;;64.93;23.65;;;;;;;6.29;81.86;100479.78;5039025;28;20044;-59
2023/02/15 11:09:12;;;;;;;56.40;24.38;;;;;;;6.79;78.93;100475.50;5071454;28;20087;-59
2023/02/15 11:11:40;;;;;;;47.22;21.02;;;;;;;6.95;78.58;100479.75;5040248;28;20125;-59
2023/02/15 11:14:30;;;;;;;49.55;21.08;;;;;;;7.60;77.02;100483.28;5057118;28;20060;-60
2023/02/15 11:16:59;;;;;;;58.33;23.95;;;;;;;7.93;76.52;100475.50;5024226;28;20044;-59
2023/02/15 11:19:32;;;;;;;47.15;22.15;;;;;;;6.36;79.81;100480.66;5022460;28;20025;-60
2023/02/15 11:22:00;;;;;;;59.22;23.88;;;;;;;7.23;79.51;100466.50;5032858;28;20402;-59
2023/02/15 11:24:27;;;;;;;52.08;22.35;;;;;;;6.93;78.71;100470.31;5037187;28;20415;-59
2023/02/15 11:27:05;;;;;;;52.50;20.77;;;;;;;6.74;76.88;100458.41;5035055;28;20059;-60
2023/02/15 11:29:53;;;;;;;45.92;19.33;;;;;;;5.31;84.18;100454.88;5042498;28;20029;-59
2023/02/15 11:32:23;;;;;;;48.40;21.05;;;;;;;6.44;82.32;100456.63;5044087;28;20166;-59
2023/02/15 11:34:48;;;;;;;;;;;;;;;5.99;81.83;100452.28;5040409;28;20425;-59
2023/02/15 11:37:17;;;;;;;48.00;18.35;;;;;;;5.45;83.43;100449.81;5042520;28;19923;-60